Voyager — C6WC2 — position and weather

sailwx.info

Track history (hours):
 
Tides and Currents Weather Stations Pressure Air Temp Water Temp Dewpoint Dewpoint Depression Visibility Wind Speed Wind Dir Waves Ship Positions

Voyager

Last reported at 2017-Jan-06 04:31 UTC. Time now 2017-Jan-21 15:34 UTC.
Position N 01°28' E 103°51'.
Warning: this ship's position is 15 days out of date.

Length 151 m; draft 6 m.

Type: Ship. MMSI: 309695000.

Date/timePositionNaut miles runAvg speedWind from/ knotsBaromVisibWave heightAir tempDewpointWater temp
2017-Jan-06 04:31N 01°28' E 103°51'2 2.4
2017-Jan-06 03:33N 01°27' E 103°53'6 5.9
2017-Jan-06 02:33N 01°24' E 103°57'11 1.8
2017-Jan-05 20:29N 01°13' E 103°56'91 9.1
2017-Jan-05 10:31N 01°45' E 102°31'1010.5
2017-Jan-05 09:33N 01°49' E 102°22'6 0.1
2017-Jan-03 13:31N 01°55' E 102°21'1111.3
2017-Jan-03 12:33N 01°50' E 102°31'8612.0
2017-Jan-03 05:27N 01°13' E 103°48'3 0.6
2017-Jan-03 00:03N 01°16' E 103°49'0 0.0
2017-Jan-02 08:24N 01°16' E 103°49'0 0.0
2017-Jan-02 05:24N 01°16' E 103°49'0 0.0
2017-Jan-02 03:09N 01°16' E 103°49'0 0.0
2017-Jan-02 02:33N 01°16' E 103°49'0 0.0
2017-Jan-02 01:32N 01°16' E 103°49'0 0.0
2017-Jan-02 00:33N 01°16' E 103°49'0 0.0
2017-Jan-01 23:33N 01°16' E 103°49'0 0.0
2017-Jan-01 22:33N 01°16' E 103°49'0 0.0
2017-Jan-01 21:33N 01°16' E 103°49'0 0.0
2017-Jan-01 20:33N 01°16' E 103°49'0 0.0
2017-Jan-01 19:33N 01°16' E 103°49'0 0.0
2017-Jan-01 18:33N 01°16' E 103°49'0 0.0
2017-Jan-01 17:33N 01°16' E 103°49'0 0.0
2017-Jan-01 16:33N 01°16' E 103°49'0 0.0
2017-Jan-01 15:33N 01°16' E 103°49'0 0.0
2017-Jan-01 14:33N 01°16' E 103°49'0 0.0
2017-Jan-01 13:32N 01°16' E 103°49'0 0.0
2017-Jan-01 12:33N 01°16' E 103°49'0 0.0
2017-Jan-01 11:33N 01°16' E 103°49'0 0.0
2017-Jan-01 10:33N 01°16' E 103°49'0 0.0
2017-Jan-01 09:33N 01°16' E 103°49'0 0.0
2017-Jan-01 08:20N 01°16' E 103°49'0 0.0
2017-Jan-01 07:32N 01°16' E 103°49'0 0.0
2017-Jan-01 06:29N 01°16' E 103°49'0 0.3
2017-Jan-01 05:33N 01°16' E 103°49'2 2.2
2017-Jan-01 04:33N 01°14' E 103°47'6 5.9
2017-Jan-01 03:33N 01°13' E 103°53'  
Track history (hours):
 
Tides and Currents Weather Stations Pressure Air Temp Water Temp Dewpoint Dewpoint Depression Visibility Wind Speed Wind Dir Waves Ship Positions

Voyager

Last reported at 2017-Jan-06 04:31 UTC. Time now 2017-Jan-21 15:34 UTC.
Position N 01°28' E 103°51'.
Warning: this ship's position is 15 days out of date.

Length 151 m; draft 6 m.

Type: Ship. MMSI: 309695000.

Date/timePositionNaut miles runAvg speedWind from/ knotsBaromVisibWave heightAir tempDewpointWater temp
2017-Jan-06 04:31N 01°28' E 103°51'2 2.4
2017-Jan-06 03:33N 01°27' E 103°53'6 5.9
2017-Jan-06 02:33N 01°24' E 103°57'11 1.8
2017-Jan-05 20:29N 01°13' E 103°56'91 9.1
2017-Jan-05 10:31N 01°45' E 102°31'1010.5
2017-Jan-05 09:33N 01°49' E 102°22'6 0.1
2017-Jan-03 13:31N 01°55' E 102°21'1111.3
2017-Jan-03 12:33N 01°50' E 102°31'8612.0
2017-Jan-03 05:27N 01°13' E 103°48'3 0.6
2017-Jan-03 00:03N 01°16' E 103°49'0 0.0
2017-Jan-02 08:24N 01°16' E 103°49'0 0.0
2017-Jan-02 05:24N 01°16' E 103°49'0 0.0
2017-Jan-02 03:09N 01°16' E 103°49'0 0.0
2017-Jan-02 02:33N 01°16' E 103°49'0 0.0
2017-Jan-02 01:32N 01°16' E 103°49'0 0.0
2017-Jan-02 00:33N 01°16' E 103°49'0 0.0
2017-Jan-01 23:33N 01°16' E 103°49'0 0.0
2017-Jan-01 22:33N 01°16' E 103°49'0 0.0
2017-Jan-01 21:33N 01°16' E 103°49'0 0.0
2017-Jan-01 20:33N 01°16' E 103°49'0 0.0
2017-Jan-01 19:33N 01°16' E 103°49'0 0.0
2017-Jan-01 18:33N 01°16' E 103°49'0 0.0
2017-Jan-01 17:33N 01°16' E 103°49'0 0.0
2017-Jan-01 16:33N 01°16' E 103°49'0 0.0
2017-Jan-01 15:33N 01°16' E 103°49'0 0.0
2017-Jan-01 14:33N 01°16' E 103°49'0 0.0
2017-Jan-01 13:32N 01°16' E 103°49'0 0.0
2017-Jan-01 12:33N 01°16' E 103°49'0 0.0
2017-Jan-01 11:33N 01°16' E 103°49'0 0.0
2017-Jan-01 10:33N 01°16' E 103°49'0 0.0
2017-Jan-01 09:33N 01°16' E 103°49'0 0.0
2017-Jan-01 08:20N 01°16' E 103°49'0 0.0
2017-Jan-01 07:32N 01°16' E 103°49'0 0.0
2017-Jan-01 06:29N 01°16' E 103°49'0 0.3
2017-Jan-01 05:33N 01°16' E 103°49'2 2.2
2017-Jan-01 04:33N 01°14' E 103°47'6 5.9
2017-Jan-01 03:33N 01°13' E 103°53'  

Dump ship's entire track history